createdAt,value
2023-03-01T00:01:39.958Z,-0.17
2023-03-01T00:05:47.865Z,-0.19
2023-03-01T00:09:50.859Z,-0.23
2023-03-01T00:13:55.686Z,-0.25
2023-03-01T00:17:58.634Z,-0.25
2023-03-01T00:22:03.493Z,-0.26
2023-03-01T00:26:09.505Z,-0.29
2023-03-01T00:30:14.426Z,-0.34
2023-03-01T00:34:17.442Z,-0.38
2023-03-01T00:38:21.865Z,-0.42
2023-03-01T00:42:26.136Z,-0.42
2023-03-01T00:46:31.519Z,-0.42
2023-03-01T00:50:34.901Z,-0.43
2023-03-01T00:54:40.358Z,-0.45
2023-03-01T00:58:43.777Z,-0.48
2023-03-01T01:02:46.880Z,-0.52
2023-03-01T01:06:49.867Z,-0.56
2023-03-01T01:10:54.300Z,-0.57
2023-03-01T01:14:57.321Z,-0.59
2023-03-01T01:19:00.427Z,-0.63
2023-03-01T01:23:04.859Z,-0.68
2023-03-01T01:27:09.382Z,-0.70
2023-03-01T01:31:12.428Z,-0.70
2023-03-01T01:35:15.529Z,-0.72
2023-03-01T01:39:19.288Z,-0.74
2023-03-01T01:43:26.250Z,-0.73
2023-03-01T01:47:35.079Z,-0.75
2023-03-01T01:51:41.148Z,-0.74
2023-03-01T01:55:47.437Z,-0.73
2023-03-01T01:59:54.770Z,-0.72
2023-03-01T02:03:58.191Z,-0.68
2023-03-01T02:08:01.857Z,-0.64
2023-03-01T02:12:06.857Z,-0.60
2023-03-01T02:16:13.741Z,-0.57
2023-03-01T02:20:25.325Z,-0.52
2023-03-01T02:24:36.114Z,-0.51
2023-03-01T02:28:42.391Z,-0.53
2023-03-01T02:32:45.693Z,-0.53
2023-03-01T02:36:51.940Z,-0.56
2023-03-01T02:40:56.849Z,-0.52
2023-03-01T02:45:01.259Z,-0.55
2023-03-01T02:49:04.402Z,-0.61
2023-03-01T02:53:15.297Z,-0.62
2023-03-01T02:57:18.766Z,-0.63
2023-03-01T03:01:24.110Z,-0.62
2023-03-01T03:05:29.623Z,-0.61
2023-03-01T03:09:34.074Z,-0.56
2023-03-01T03:13:37.201Z,-0.59
2023-03-01T03:17:45.266Z,-0.60
2023-03-01T03:21:50.636Z,-0.60
2023-03-01T03:25:53.934Z,-0.59
2023-03-01T03:29:57.307Z,-0.56
2023-03-01T03:34:01.627Z,-0.59
2023-03-01T03:38:10.294Z,-0.53
2023-03-01T03:42:13.245Z,-0.59
2023-03-01T03:46:16.439Z,-0.61
2023-03-01T03:50:21.081Z,-0.66
2023-03-01T03:54:24.327Z,-0.67
2023-03-01T03:58:27.910Z,-0.61
2023-03-01T04:02:31.008Z,-0.61
2023-03-01T04:06:35.528Z,-0.61
2023-03-01T04:10:40.683Z,-0.61
2023-03-01T04:14:43.741Z,-0.59
2023-03-01T04:18:46.951Z,-0.59
2023-03-01T04:22:51.265Z,-0.55
2023-03-01T04:26:54.518Z,-0.54
2023-03-01T04:30:59.006Z,-0.50
2023-03-01T04:35:02.350Z,-0.53
2023-03-01T04:39:13.176Z,-0.47
2023-03-01T04:43:16.610Z,-0.41
2023-03-01T04:47:19.637Z,-0.42
2023-03-01T04:51:22.969Z,-0.42
2023-03-01T04:55:28.485Z,-0.38
2023-03-01T04:59:31.754Z,-0.38
2023-03-01T05:03:34.720Z,-0.41
2023-03-01T05:07:37.756Z,-0.45
2023-03-01T05:11:42.101Z,-0.36
2023-03-01T05:15:45.190Z,-0.32
2023-03-01T05:19:48.272Z,-0.31
2023-03-01T05:23:51.503Z,-0.29
2023-03-01T05:27:56.093Z,-0.28
2023-03-01T05:32:01.963Z,-0.37
2023-03-01T05:36:05.838Z,-0.36
2023-03-01T05:40:16.518Z,-0.32
2023-03-01T05:44:21.245Z,-0.23
2023-03-01T05:48:24.363Z,-0.17
2023-03-01T05:52:27.297Z,-0.15
2023-03-01T05:56:31.354Z,-0.14
2023-03-01T06:00:36.481Z,-0.06
2023-03-01T06:04:39.910Z,0.02
2023-03-01T06:08:42.901Z,0.06
2023-03-01T06:12:46.682Z,0.06
2023-03-01T06:16:51.020Z,0.02
2023-03-01T06:20:58.058Z,0.02
2023-03-01T06:25:01.066Z,0.02
2023-03-01T06:29:04.386Z,-0.00
2023-03-01T06:33:08.793Z,-0.02
2023-03-01T06:37:12.346Z,-0.04
2023-03-01T06:41:15.308Z,-0.05
2023-03-01T06:45:19.826Z,0.01
2023-03-01T06:49:24.453Z,0.05
2023-03-01T06:53:27.508Z,0.13
2023-03-01T06:57:30.954Z,0.15
2023-03-01T07:01:34.011Z,0.20
2023-03-01T07:05:38.559Z,0.31
2023-03-01T07:09:41.693Z,0.43
2023-03-01T07:13:44.650Z,0.53
2023-03-01T07:17:49.014Z,0.51
2023-03-01T07:21:53.605Z,0.61
2023-03-01T07:25:57.121Z,0.64
2023-03-01T07:30:00.340Z,0.61
2023-03-01T07:34:03.443Z,0.62
2023-03-01T07:38:07.797Z,0.64
2023-03-01T07:42:11.136Z,0.72
2023-03-01T07:46:14.116Z,0.77
2023-03-01T07:50:17.840Z,0.86
2023-03-01T07:54:22.588Z,0.97
2023-03-01T07:58:25.794Z,1.04
2023-03-01T08:02:28.742Z,1.13
2023-03-01T08:06:32.397Z,1.24
2023-03-01T08:10:38.437Z,1.27
2023-03-01T08:14:41.563Z,1.33
2023-03-01T08:18:45.446Z,1.44
2023-03-01T08:22:48.629Z,1.58
2023-03-01T08:26:52.954Z,1.70
2023-03-01T08:30:56.253Z,1.68
2023-03-01T08:34:59.384Z,1.71
2023-03-01T08:39:02.809Z,1.73
2023-03-01T08:43:07.179Z,1.82
2023-03-01T08:47:10.356Z,1.90
2023-03-01T08:51:16.069Z,1.98
2023-03-01T08:55:19.233Z,2.05
2023-03-01T08:59:23.804Z,2.12
2023-03-01T09:03:27.373Z,2.17
2023-03-01T09:07:30.428Z,2.27
2023-03-01T09:11:34.291Z,2.39
2023-03-01T09:15:40.384Z,2.52
2023-03-01T09:19:43.455Z,2.64
2023-03-01T09:23:48.044Z,2.76
2023-03-01T09:27:53.290Z,2.90
2023-03-01T09:31:57.838Z,3.03
2023-03-01T09:36:01.433Z,3.02
2023-03-01T09:40:06.329Z,3.05
2023-03-01T09:44:18.391Z,3.15
2023-03-01T09:48:26.141Z,3.30
2023-03-01T09:52:34.918Z,3.47
2023-03-01T09:56:41.834Z,3.64
2023-03-01T10:00:47.329Z,3.77
2023-03-01T10:04:53.159Z,3.78
2023-03-01T10:09:00.752Z,3.82
2023-03-01T10:13:09.155Z,3.89
2023-03-01T10:17:22.027Z,4.02
2023-03-01T10:21:30.379Z,4.20
2023-03-01T10:25:47.028Z,4.21
2023-03-01T10:30:00.565Z,4.27
2023-03-01T10:34:03.959Z,4.25
2023-03-01T10:38:10.419Z,4.36
2023-03-01T10:42:32.483Z,4.47
2023-03-01T10:46:38.685Z,4.43
2023-03-01T10:50:42.801Z,4.53
2023-03-01T10:54:54.915Z,4.56
2023-03-01T10:59:03.070Z,4.64
2023-03-01T11:03:14.091Z,4.76
2023-03-01T11:07:17.199Z,4.84
2023-03-01T11:11:28.351Z,4.95
2023-03-01T11:15:31.908Z,5.10
2023-03-01T11:19:35.337Z,5.24
2023-03-01T11:23:41.746Z,5.30
2023-03-01T11:27:47.608Z,5.27
2023-03-01T11:31:57.887Z,5.23
2023-03-01T11:36:05.424Z,5.34
2023-03-01T11:40:15.782Z,5.40
2023-03-01T11:44:25.357Z,5.48
2023-03-01T11:48:49.715Z,5.52
2023-03-01T11:53:03.871Z,5.50
2023-03-01T11:57:20.790Z,5.58
2023-03-01T12:01:39.751Z,5.66
2023-03-01T12:06:07.658Z,5.70
2023-03-01T12:10:24.434Z,5.83
2023-03-01T12:14:50.425Z,5.92
2023-03-01T12:19:13.152Z,6.00
2023-03-01T12:23:41.101Z,5.96
2023-03-01T12:28:16.490Z,6.03
2023-03-01T12:32:42.316Z,6.14
2023-03-01T12:36:59.994Z,6.17
2023-03-01T12:41:25.369Z,6.24
2023-03-01T12:45:42.491Z,6.29
2023-03-01T12:49:50.322Z,6.31
2023-03-01T12:53:57.086Z,6.33
2023-03-01T12:58:10.728Z,6.36
2023-03-01T13:02:24.048Z,6.35
2023-03-01T13:06:43.336Z,6.44
2023-03-01T13:10:52.482Z,6.54
2023-03-01T13:14:56.803Z,6.66
2023-03-01T13:19:10.905Z,6.74
2023-03-01T13:23:29.766Z,6.77
2023-03-01T13:27:34.153Z,6.77
2023-03-01T13:32:01.682Z,6.81
2023-03-01T13:36:08.110Z,6.89
2023-03-01T13:40:48.397Z,7.01
2023-03-01T13:44:52.820Z,7.04
2023-03-01T13:48:58.806Z,7.07
2023-03-01T13:53:05.275Z,6.99
2023-03-01T13:57:21.515Z,6.96
2023-03-01T14:01:29.943Z,6.95
2023-03-01T14:05:33.668Z,6.90
2023-03-01T14:09:42.204Z,6.86
2023-03-01T14:14:00.823Z,6.86
2023-03-01T14:18:15.005Z,6.86
2023-03-01T14:22:24.047Z,6.89
2023-03-01T14:26:27.538Z,6.85
2023-03-01T14:30:35.051Z,6.83
2023-03-01T14:34:45.546Z,6.81
2023-03-01T14:38:49.716Z,6.82
2023-03-01T14:42:53.666Z,6.79
2023-03-01T14:46:58.393Z,6.75
2023-03-01T14:51:03.496Z,6.73
2023-03-01T14:55:09.540Z,6.73
2023-03-01T14:59:13.395Z,6.69
2023-03-01T15:03:25.775Z,6.69
2023-03-01T15:07:33.610Z,6.69
2023-03-01T15:11:38.021Z,6.66
2023-03-01T15:15:44.925Z,6.67
2023-03-01T15:19:48.746Z,6.71
2023-03-01T15:23:56.461Z,6.72
2023-03-01T15:28:02.128Z,6.72
2023-03-01T15:32:08.040Z,6.71
2023-03-01T15:36:33.853Z,6.69
2023-03-01T15:40:50.952Z,6.71
2023-03-01T15:45:10.246Z,6.69
2023-03-01T15:49:29.831Z,6.66
2023-03-01T15:53:33.144Z,6.68
2023-03-01T15:57:37.518Z,6.69
2023-03-01T16:01:40.545Z,6.67
2023-03-01T16:05:44.076Z,6.69
2023-03-01T16:09:47.224Z,6.70
2023-03-01T16:13:51.874Z,6.69
2023-03-01T16:17:55.275Z,6.66
2023-03-01T16:21:58.318Z,6.61
2023-03-01T16:26:01.674Z,6.58
2023-03-01T16:30:07.195Z,6.55
2023-03-01T16:34:10.924Z,6.50
2023-03-01T16:38:14.007Z,6.45
2023-03-01T16:42:17.441Z,6.39
2023-03-01T16:46:23.953Z,6.33
2023-03-01T16:50:27.274Z,6.29
2023-03-01T16:54:30.499Z,6.25
2023-03-01T16:58:33.623Z,6.20
2023-03-01T17:02:38.258Z,6.16
2023-03-01T17:06:41.596Z,6.13
2023-03-01T17:10:44.920Z,6.08
2023-03-01T17:14:50.082Z,6.07
2023-03-01T17:18:55.103Z,6.05
2023-03-01T17:22:58.861Z,6.02
2023-03-01T17:27:02.041Z,5.95
2023-03-01T17:31:06.802Z,5.90
2023-03-01T17:35:12.255Z,5.86
2023-03-01T17:39:15.455Z,5.81
2023-03-01T17:43:20.089Z,5.75
2023-03-01T17:47:23.205Z,5.68
2023-03-01T17:51:27.604Z,5.61
2023-03-01T17:55:30.868Z,5.54
2023-03-01T17:59:34.129Z,5.45
2023-03-01T18:03:37.413Z,5.38
2023-03-01T18:07:41.937Z,5.32
2023-03-01T18:11:46.921Z,5.26
2023-03-01T18:15:50.833Z,5.22
2023-03-01T18:19:56.224Z,5.14
2023-03-01T18:24:00.671Z,5.07
2023-03-01T18:28:04.540Z,5.03
2023-03-01T18:32:08.548Z,4.98
2023-03-01T18:36:20.270Z,4.94
2023-03-01T18:40:24.635Z,4.90
2023-03-01T18:44:27.756Z,4.84
2023-03-01T18:48:30.713Z,4.78
2023-03-01T18:52:33.750Z,4.73
2023-03-01T18:56:38.437Z,4.66
2023-03-01T19:00:41.691Z,4.57
2023-03-01T19:04:44.656Z,4.49
2023-03-01T19:08:48.297Z,4.39
2023-03-01T19:12:52.676Z,4.30
2023-03-01T19:16:55.780Z,4.23
2023-03-01T19:21:03.883Z,4.18
2023-03-01T19:25:08.554Z,4.14
2023-03-01T19:29:13.164Z,4.09
2023-03-01T19:33:16.184Z,4.05
2023-03-01T19:37:19.179Z,4.01
2023-03-01T19:41:22.707Z,3.97
2023-03-01T19:45:33.356Z,3.93
2023-03-01T19:49:37.841Z,3.87
2023-03-01T19:53:42.002Z,3.83
2023-03-01T19:57:45.296Z,3.78
2023-03-01T20:01:49.778Z,3.70
2023-03-01T20:05:52.936Z,3.61
2023-03-01T20:09:56.085Z,3.53
2023-03-01T20:13:59.232Z,3.47
2023-03-01T20:18:03.591Z,3.38
2023-03-01T20:22:06.795Z,3.29
2023-03-01T20:26:15.148Z,3.21
2023-03-01T20:30:18.741Z,3.17
2023-03-01T20:34:23.090Z,3.09
2023-03-01T20:38:27.238Z,3.03
2023-03-01T20:42:30.200Z,2.98
2023-03-01T20:46:34.822Z,2.97
2023-03-01T20:50:42.851Z,2.95
2023-03-01T20:54:45.930Z,2.94
2023-03-01T20:58:49.472Z,2.93
2023-03-01T21:02:52.827Z,2.92
2023-03-01T21:06:57.218Z,2.90
2023-03-01T21:11:00.836Z,2.89
2023-03-01T21:15:03.976Z,2.90
2023-03-01T21:19:07.422Z,2.92
2023-03-01T21:23:11.749Z,2.88
2023-03-01T21:27:14.804Z,2.86
2023-03-01T21:31:19.947Z,2.85
2023-03-01T21:35:23.152Z,2.86
2023-03-01T21:39:28.949Z,2.88
2023-03-01T21:43:32.081Z,2.86
2023-03-01T21:47:36.237Z,2.81
2023-03-01T21:51:39.698Z,2.82
2023-03-01T21:55:49.370Z,2.80
2023-03-01T21:59:52.393Z,2.76
2023-03-01T22:03:56.162Z,2.74
2023-03-01T22:07:59.272Z,2.73
2023-03-01T22:12:03.724Z,2.68
2023-03-01T22:16:07.733Z,2.62
2023-03-01T22:20:12.065Z,2.53
2023-03-01T22:24:15.215Z,2.52
2023-03-01T22:28:20.266Z,2.53
2023-03-01T22:32:23.532Z,2.50
2023-03-01T22:36:27.101Z,2.52
2023-03-01T22:40:30.244Z,2.52
2023-03-01T22:44:34.572Z,2.53
2023-03-01T22:48:37.639Z,2.50
2023-03-01T22:52:40.802Z,2.49
2023-03-01T22:56:44.236Z,2.46
2023-03-01T23:00:48.567Z,2.46
2023-03-01T23:04:54.178Z,2.49
2023-03-01T23:08:58.701Z,2.50
2023-03-01T23:13:01.737Z,2.49
2023-03-01T23:17:08.067Z,2.51
2023-03-01T23:21:12.699Z,2.49
2023-03-01T23:25:16.092Z,2.53
2023-03-01T23:29:19.110Z,2.56
2023-03-01T23:33:23.490Z,2.56
2023-03-01T23:37:31.163Z,2.62
2023-03-01T23:41:36.276Z,2.68
2023-03-01T23:45:42.983Z,2.71
2023-03-01T23:49:47.321Z,2.69
2023-03-01T23:53:55.318Z,2.65
2023-03-01T23:57:58.268Z,2.63
